Details From MDPC - Punta Cana Intl
To MDSD - Las Americas Intl
Flight Number -
Tags generated
Created
Modified
Stats Distance 75 nm / 139 km
Max Altitude 8,700 ft / 2,652 m
Waypoints 4
Social Downloads 1
Likes 0
Share VATSIM

Download

Looking for another format? Having issues loading an existing format? Contact us
Advertisement - Login to hide

Notes

Basic altitude profile: - Ascent Rate: 2500ft/min - Ascent Speed: 250kts - Cruise Altitude: 35000ft - Cruise Speed: 420kts - Descent Rate: 1500ft/min - Descent Speed: 250kts Options: - Use NATs: yes - Use PACOTS: yes - Use low airways: yes - Use high airways: yes

Route

MDPC GOSUL W5 CDO MDSD

ID Type Via Altitude Latitude Longitude Leg Dist Tot Dist Heading (true) Name
O MDPC APT - 0 ft / 0 m 18.57057˚ -68.36613˚ - 0 nm - Punta Cana Intl
GOSUL FIX - 8,700 ft / 2,652 m 18.52287˚ -68.79536˚ 24 nm 24 nm 263° / 263° -
CDO DME W5 (AWY-LO) 4,000 ft / 1,219 m 18.43293˚ -69.66733˚ 49 nm 74 nm 264° / 264° PUNTA CAUCEDO VOR-DME
O MDSD APT - 0 ft / 0 m 18.42966˚ -69.66893˚ 0 nm 74 nm 205° / 205° Las Americas Intl

Altitude Profile

Advertisement - Login to hide

MDPC

Details ICAO MDPC (PUJ)
Name Punta Cana Intl
Region Dominican Republic
Timezone America/Santo_Domingo (UTC-4.0)
Stats Elevation 46 ft / 14 m (AMSL)
Location 18.570574° -68.366130°
Runways 2
Magnetic Variation 12.179° W

METAR

MDPC 120100Z 01005KT 9999 FEW021 23/19 Q1014 NOSIG

Decode

TAF

Not found

Departure Runways

ID Width Length Bearing (true) Bearing (mag) Surface Threshold Offset Overrun Length
08 148 ft / 45 m 10,110 ft / 3,082 m 74.20° 86.38° Asphalt 0 ft / 0 m 374 ft / 114 m
09 148 ft / 45 m 10,163 ft / 3,098 m 84.79° 96.97° Asphalt 0 ft / 0 m 374 ft / 114 m
26 148 ft / 45 m 10,110 ft / 3,082 m 254.21° 266.39° Asphalt 0 ft / 0 m 374 ft / 114 m
27 148 ft / 45 m 10,163 ft / 3,098 m 264.80° 276.98° Asphalt 0 ft / 0 m 374 ft / 114 m

MDSD

Details ICAO MDSD (SDQ)
Name Las Americas Intl
Region Dominican Republic
Timezone America/Santo_Domingo (UTC-4.0)
Stats Elevation 59 ft / 18 m (AMSL)
Location 18.429662° -69.668925°
Runways 1
Magnetic Variation 11.536° W

METAR

MDSD 120100Z 06004KT 9999 FEW018 26/24 Q1013 NOSIG METAR MDLR 120100Z 00000KT 9999 FEW018 21/20 Q1014

Decode

TAF

Not found

Destination Runways

ID Width Length Bearing (true) Bearing (mag) Surface Threshold Offset Overrun Length
17 200 ft / 61 m 11,051 ft / 3,368 m 160.78° 172.32° Asphalt 0 ft / 0 m 0 ft / 0 m
35 200 ft / 61 m 11,051 ft / 3,368 m 340.79° 352.33° Asphalt 0 ft / 0 m 0 ft / 0 m

Approach Navaids

Runway Type Ident Frequency Range Bearing (true) Bearing (mag) Slope Elevation
17 Localiser ICDO 108.90 MHz 18 nm / 33 km 160.59° 172.12° - 58 ft / 18 m (AMSL)
17 Glidescope ICDO 108.90 MHz 10 nm / 19 km 160.78° 172.32° 3.00° 35 ft / 11 m (AMSL)
17 DME ICDO 108.90 MHz 18 nm / 33 km - - - 35 ft / 11 m (AMSL)

Popular Alternatives